プンタアレナス の空港の天気 - METARとTAF

プンタアレナス空港 ( SCCI / PUQ ) - チリ プンタアレナス
飛行場実況気象(Metar)
観測時間04/26 08:00 CLST (04/26 11:00 UTC)
風向・風速東 9m/s
視程8000m
天気現象弱い雪
少しの雲 雲底高度 210m
全天を覆う雲 雲底高度 490m
気温1℃
湿度93%
気圧1003hPa
METARSCCI 261100Z 09018KT 8000 -SN FEW007 OVC016 01/00 Q1003 NOSIG
過去の天気等 Google飛行場航空写真 Wunderground天気予報

過去48時間のMETAR

飛行場予報(TAF)
発表時間: 4/26 01:53 CLST (4/26 04:53 UTC)
予報対象時間: 26日3時 CLST ~ 27日3時 CLST
風向・風速東南東 8m/s
視程9,000m
天気現象弱い雨
少しの雲 雲底高度 430m
全天の8割程度の雲 雲底高度 760m
26日5時 CLST ~ 26日9時 CLST に一時的に
視程6,000m
天気現象雨 雨雪
全天の4割程度の雲 雲底高度 300m
全天を覆う雲 雲底高度 610m
26日16時 CLST ~ 26日21時 CLST に一時的に
視程4,000m
天気現象雨 弱い雪
全天の4割程度の雲 雲底高度 300m
全天の8割程度の雲 雲底高度 610m
26日22時 CLST ~ 26日24時 CLST に徐々に
風向・風速南南東 5m/s
視程10km以上
天気現象運行に影響にある天気現象が終了
全天の4割程度の雲 雲底高度 1,070m
TAF SCCI 260453Z 2606/2706 12015KT 9000 -RA FEW014 BKN025 TX05/2606Z TN02/2610Z
TEMPO 2608/2612 6000 RA RASN SCT010 OVC020
TEMPO 2619/2700 4000 RA -SN SCT010 BKN020
BECMG 2701/2703 16010KT 9999 NSW SCT035